Time;durP1;ratioP1;P1;durP2;ratioP2;P2;SDS_P1;SDS_P2;PMS_P1;PMS_P2;Temp;Humidity;BMP_temperature;BMP_pressure;BME280_temperature;BME280_humidity;BME280_pressure;Samples;Min_cycle;Max_cycle;Signal;HPM_P1;HPM_P2
2023/05/18 00:00:00;;;;;;;6.03;2.93;;;;;;;18.65;65.41;100979.91;5049505;28;20190;-61
2023/05/18 00:02:26;;;;;;;5.60;2.60;;;;;;;18.65;65.35;100979.06;5049164;28;20196;-61
2023/05/18 00:04:51;;;;;;;6.43;2.20;;;;;;;18.66;65.51;100978.72;5031486;28;20432;-62
2023/05/18 00:07:17;;;;;;;8.20;2.50;;;;;;;18.63;65.41;100973.75;5049736;28;20176;-61
2023/05/18 00:09:42;;;;;;;7.23;2.10;;;;;;;18.62;65.54;100977.78;5049256;28;20184;-62
2023/05/18 00:12:08;;;;;;;5.63;2.30;;;;;;;18.61;65.56;100964.69;5049917;28;20242;-61
2023/05/18 00:14:34;;;;;;;6.53;2.43;;;;;;;18.61;65.57;100970.41;5031984;28;20207;-61
2023/05/18 00:17:02;;;;;;;5.77;2.40;;;;;;;18.62;65.67;100976.97;5050011;28;20406;-62
2023/05/18 00:19:28;;;;;;;5.67;2.33;;;;;;;18.61;65.57;100969.59;5030993;28;20183;-62
2023/05/18 00:21:57;;;;;;;5.40;2.90;;;;;;;18.60;65.30;100974.47;5049859;28;20418;-62
2023/05/18 00:24:22;;;;;;;5.03;2.43;;;;;;;18.61;65.44;100976.13;5030812;28;20776;-61
2023/05/18 00:26:48;;;;;;;4.80;2.67;;;;;;;18.60;65.41;100971.59;5049820;28;20425;-62
2023/05/18 00:29:13;;;;;;;2.97;2.07;;;;;;;18.61;65.51;100970.41;5050112;28;20535;-62
2023/05/18 00:31:39;;;;;;;8.07;2.70;;;;;;;18.61;65.61;100973.25;5046148;28;20188;-62
2023/05/18 00:34:05;;;;;;;6.47;2.87;;;;;;;18.61;65.39;100969.59;5048892;28;20629;-61
2023/05/18 00:36:31;;;;;;;4.50;2.37;;;;;;;18.61;65.24;100966.72;5049461;28;20302;-61
2023/05/18 00:38:57;;;;;;;4.33;2.00;;;;;;;18.60;65.50;100965.03;5049602;28;20441;-61
2023/05/18 00:41:23;;;;;;;3.50;2.43;;;;;;;18.60;65.27;100971.59;5030344;28;20194;-62
2023/05/18 00:43:49;;;;;;;4.90;2.40;;;;;;;18.59;65.54;100964.22;5048503;28;20892;-62
2023/05/18 00:46:15;;;;;;;4.57;2.37;;;;;;;18.57;65.71;100969.47;5046370;28;20464;-63
2023/05/18 00:48:40;;;;;;;3.77;1.90;;;;;;;18.58;65.55;100968.28;5048855;28;20186;-62
2023/05/18 00:51:05;;;;;;;7.17;2.50;;;;;;;18.59;65.59;100967.09;5034928;28;20188;-62
2023/05/18 00:53:31;;;;;;;2.90;1.97;;;;;;;18.58;65.35;100971.16;5028794;28;20168;-63
2023/05/18 00:55:57;;;;;;;5.30;2.33;;;;;;;18.59;65.54;100972.81;5003856;28;20211;-61
2023/05/18 00:58:23;;;;;;;3.33;2.10;;;;;;;18.59;65.30;100969.09;5049198;28;20184;-61
2023/05/18 01:00:48;;;;;;;4.90;1.90;;;;;;;18.57;65.44;100963.75;5035254;28;20183;-64
2023/05/18 01:03:14;;;;;;;3.57;2.23;;;;;;;18.55;65.36;100963.28;5048091;28;20176;-64
2023/05/18 01:05:39;;;;;;;3.73;2.10;;;;;;;18.56;65.41;100956.38;5065935;28;20206;-64
2023/05/18 01:08:05;;;;;;;4.27;1.93;;;;;;;18.55;65.63;100951.84;5065407;28;20179;-64
2023/05/18 01:10:32;;;;;;;3.30;2.03;;;;;;;18.55;65.67;100960.44;5049135;28;20206;-64
2023/05/18 01:13:11;;;;;;;5.43;2.40;;;;;;;18.55;65.66;100954.72;5067105;28;20215;-64
2023/05/18 01:15:37;;;;;;;3.40;2.00;;;;;;;18.56;65.83;100952.69;5089899;28;20456;-64
2023/05/18 01:18:09;;;;;;;4.97;2.07;;;;;;;18.55;65.55;100954.72;5071742;28;20432;-64
2023/05/18 01:20:39;;;;;;;3.00;2.10;;;;;;;18.55;65.67;100949.00;5069783;28;20509;-64
2023/05/18 01:23:24;;;;;;;7.17;2.27;;;;;;;18.54;65.40;100947.34;5068926;28;20443;-64
2023/05/18 01:25:53;;;;;;;5.30;2.33;;;;;;;18.53;65.62;100948.53;5071520;28;20416;-64
2023/05/18 01:28:29;;;;;;;6.47;2.60;;;;;;;18.54;65.47;100941.63;5088418;28;20444;-64
2023/05/18 01:30:55;;;;;;;3.93;2.20;;;;;;;18.53;65.69;100937.09;5054728;28;20425;-64
2023/05/18 01:33:20;;;;;;;5.67;2.87;;;;;;;18.53;65.48;100947.69;5085636;28;20425;-64
2023/05/18 01:35:48;;;;;;;3.50;2.03;;;;;;;18.54;65.46;100952.22;5086767;28;20391;-64
2023/05/18 01:38:21;;;;;;;5.67;2.70;;;;;;;18.52;65.74;100946.84;5088165;28;20152;-64
2023/05/18 01:40:58;;;;;;;3.20;2.00;;;;;;;18.52;65.64;100952.56;5081063;28;20433;-64
2023/05/18 01:43:27;;;;;;;4.40;2.10;;;;;;;18.52;65.67;100948.91;5065227;28;20432;-64
2023/05/18 01:45:54;;;;;;;4.93;1.90;;;;;;;18.52;65.87;100937.47;5086160;28;20444;-64
2023/05/18 01:48:20;;;;;;;4.07;2.40;;;;;;;18.52;65.88;100949.69;5053833;28;20429;-64
2023/05/18 01:50:46;;;;;;;4.03;2.10;;;;;;;18.52;65.39;100948.91;5086854;28;20417;-64
2023/05/18 01:53:17;;;;;;;3.67;2.03;;;;;;;18.50;65.65;100939.84;5087654;28;20171;-64
2023/05/18 01:55:42;;;;;;;3.00;1.80;;;;;;;18.50;65.54;100940.69;5067447;28;20468;-64
2023/05/18 01:58:08;;;;;;;3.93;1.93;;;;;;;18.49;65.65;100941.88;5087293;28;20474;-64
2023/05/18 02:00:33;;;;;;;7.03;2.20;;;;;;;18.50;65.49;100940.69;5086015;28;20179;-64
2023/05/18 02:02:59;;;;;;;4.53;1.90;;;;;;;18.50;65.49;100934.09;5087109;28;20191;-64
2023/05/18 02:05:24;;;;;;;3.50;1.67;;;;;;;18.48;65.47;100930.81;5069208;28;20894;-64
2023/05/18 02:07:50;;;;;;;3.67;1.83;;;;;;;18.48;65.65;100937.38;5086550;28;20190;-64
2023/05/18 02:10:15;;;;;;;4.73;2.40;;;;;;;18.48;65.73;100931.66;5086827;28;20191;-64
2023/05/18 02:12:41;;;;;;;5.00;1.90;;;;;;;18.48;65.46;100925.09;5072124;28;20231;-64
2023/05/18 02:15:07;;;;;;;4.77;2.10;;;;;;;18.48;65.73;100920.22;5066982;28;20211;-64
2023/05/18 02:17:32;;;;;;;4.03;1.97;;;;;;;18.47;65.63;100918.53;5066660;28;20206;-64
2023/05/18 02:19:58;;;;;;;3.63;1.90;;;;;;;18.45;65.62;100923.78;5066132;28;20178;-64
2023/05/18 02:22:23;;;;;;;3.43;1.70;;;;;;;18.45;65.55;100918.06;5045949;28;20733;-64
2023/05/18 02:24:49;;;;;;;4.03;2.70;;;;;;;18.48;65.67;100925.09;5065772;28;20172;-64
2023/05/18 02:27:15;;;;;;;3.50;2.00;;;;;;;18.46;65.50;100916.88;5065073;28;20212;-64
2023/05/18 02:29:40;;;;;;;3.30;1.67;;;;;;;18.46;65.50;100933.22;5048811;28;20407;-64
2023/05/18 02:32:07;;;;;;;3.70;1.90;;;;;;;18.44;65.73;100927.84;5067293;28;20190;-64
2023/05/18 02:34:34;;;;;;;5.23;2.17;;;;;;;18.44;65.70;100925.00;5014953;28;20295;-64
2023/05/18 02:37:02;;;;;;;3.30;2.00;;;;;;;18.44;65.82;100922.13;5051122;28;20472;-64
2023/05/18 02:39:28;;;;;;;2.90;1.90;;;;;;;18.45;65.54;100918.06;5066903;28;20446;-64
2023/05/18 02:41:53;;;;;;;3.87;1.83;;;;;;;18.46;65.63;100914.00;5066097;28;20434;-64
2023/05/18 02:44:19;;;;;;;3.67;1.90;;;;;;;18.43;65.61;100911.06;5066002;28;20164;-64
2023/05/18 02:46:44;;;;;;;3.50;1.90;;;;;;;18.43;65.82;100911.06;5066448;28;20198;-64
2023/05/18 02:49:10;;;;;;;4.23;2.00;;;;;;;18.44;65.69;100907.00;5067405;28;20194;-64
2023/05/18 02:51:36;;;;;;;4.30;2.27;;;;;;;18.42;65.51;100909.41;5065863;28;20187;-64
2023/05/18 02:54:01;;;;;;;4.73;1.80;;;;;;;18.44;65.64;100913.56;5065000;28;20182;-64
2023/05/18 02:56:27;;;;;;;3.20;1.80;;;;;;;18.43;65.66;100911.91;5030137;28;20326;-64
2023/05/18 02:58:56;;;;;;;3.77;2.10;;;;;;;18.42;65.77;100913.06;5031426;28;20208;-64
2023/05/18 03:01:25;;;;;;;3.53;1.53;;;;;;;18.43;65.79;100911.06;5043004;28;20184;-64
2023/05/18 03:03:51;;;;;;;3.47;2.03;;;;;;;18.40;65.76;100912.63;5065323;28;20937;-64
2023/05/18 03:06:22;;;;;;;3.40;2.17;;;;;;;18.40;65.95;100921.19;5064776;28;20434;-64
2023/05/18 03:08:54;;;;;;;4.40;1.90;;;;;;;18.41;65.55;100920.00;5052211;28;20431;-64
2023/05/18 03:11:20;;;;;;;2.80;1.70;;;;;;;18.42;65.56;100909.41;5034378;28;20479;-64
2023/05/18 03:13:46;;;;;;;2.60;1.70;;;;;;;18.40;65.54;100912.63;5068841;28;20418;-64
2023/05/18 03:16:12;;;;;;;3.87;2.13;;;;;;;18.40;65.61;100909.75;5066746;28;20441;-64
2023/05/18 03:18:38;;;;;;;5.90;2.13;;;;;;;18.40;65.95;100915.47;5064414;28;20423;-64
2023/05/18 03:21:03;;;;;;;4.77;2.33;;;;;;;18.39;65.59;100905.25;5048767;28;20187;-64
2023/05/18 03:23:29;;;;;;;4.30;1.77;;;;;;;18.39;65.82;100910.13;5049916;28;20195;-64
2023/05/18 03:25:54;;;;;;;3.33;1.90;;;;;;;18.39;65.83;100910.97;5063269;28;20156;-64
2023/05/18 03:28:20;;;;;;;3.43;1.80;;;;;;;18.39;65.54;100910.97;5067011;28;20195;-64
2023/05/18 03:30:45;;;;;;;3.47;1.93;;;;;;;18.38;65.86;100909.31;5066234;28;20887;-64
2023/05/18 03:33:11;;;;;;;3.03;1.93;;;;;;;18.38;65.87;100914.19;5065244;28;20251;-64
2023/05/18 03:35:39;;;;;;;4.03;1.90;;;;;;;18.40;65.54;100903.19;5053752;28;20208;-64
2023/05/18 03:38:04;;;;;;;3.13;2.00;;;;;;;18.37;65.51;100907.63;5060692;28;20179;-64
2023/05/18 03:40:30;;;;;;;2.80;1.63;;;;;;;18.38;65.76;100911.31;5063735;28;20450;-64
2023/05/18 03:42:55;;;;;;;3.43;1.80;;;;;;;18.37;65.63;100918.22;5064438;28;20191;-64
2023/05/18 03:45:21;;;;;;;5.33;2.10;;;;;;;18.36;65.78;100905.16;5063343;28;20229;-64
2023/05/18 03:47:46;;;;;;;3.17;2.00;;;;;;;18.35;65.56;100910.03;5064142;28;20192;-64
2023/05/18 03:50:12;;;;;;;3.53;1.83;;;;;;;18.35;65.96;100920.59;5064109;28;20156;-64
2023/05/18 03:52:37;;;;;;;3.73;1.90;;;;;;;18.37;65.68;100921.09;5062146;28;20184;-64
2023/05/18 03:55:03;;;;;;;3.97;2.10;;;;;;;18.36;65.82;100922.28;5061627;28;20762;-64
2023/05/18 03:57:30;;;;;;;2.93;1.97;;;;;;;18.36;65.63;100934.53;5065211;28;20166;-64
2023/05/18 03:59:56;;;;;;;4.20;1.83;;;;;;;18.37;65.49;100933.34;5063587;28;20420;-64
2023/05/18 04:02:21;;;;;;;4.40;2.10;;;;;;;18.35;65.79;100941.47;5063794;28;20442;-64
2023/05/18 04:04:46;;;;;;;2.87;1.63;;;;;;;18.34;65.87;100931.22;5063433;28;20179;-64
2023/05/18 04:07:15;;;;;;;3.93;2.00;;;;;;;18.35;65.41;100944.31;5063801;28;20214;-64
2023/05/18 04:09:41;;;;;;;2.93;1.87;;;;;;;18.34;65.61;100942.66;5047159;28;20203;-64
2023/05/18 04:12:06;;;;;;;3.10;1.80;;;;;;;18.33;65.75;100946.72;5064494;28;20825;-64
2023/05/18 04:14:32;;;;;;;3.43;1.80;;;;;;;18.35;65.60;100944.31;5028397;28;20207;-64
2023/05/18 04:17:04;;;;;;;4.00;1.70;;;;;;;18.35;65.54;100944.31;5042683;28;20219;-64
2023/05/18 04:19:33;;;;;;;2.80;1.70;;;;;;;18.34;65.56;100948.38;5038547;28;20447;-64
2023/05/18 04:21:59;;;;;;;2.53;1.70;;;;;;;18.34;65.81;100954.09;5064149;28;20426;-64
2023/05/18 04:24:25;;;;;;;3.37;2.00;;;;;;;18.35;65.81;100949.19;5061633;28;20433;-64
2023/05/18 04:26:51;;;;;;;3.27;1.93;;;;;;;18.32;65.62;100950.75;5062836;28;20191;-64
2023/05/18 04:29:17;;;;;;;5.17;2.00;;;;;;;18.33;65.58;100949.59;5043678;28;20429;-64
2023/05/18 04:31:46;;;;;;;3.93;2.40;;;;;;;18.34;65.64;100961.84;5060609;28;20438;-64
2023/05/18 04:34:12;;;;;;;3.30;1.37;;;;;;;18.34;65.72;100965.53;5061074;28;20234;-64
2023/05/18 04:36:41;;;;;;;5.10;1.80;;;;;;;18.35;65.55;100960.63;5060509;28;20449;-64
2023/05/18 04:39:07;;;;;;;4.43;2.00;;;;;;;18.35;65.46;100967.19;5060324;28;20434;-64
2023/05/18 04:41:33;;;;;;;3.87;1.87;;;;;;;18.35;65.53;100967.19;5060499;28;20422;-64
2023/05/18 04:43:59;;;;;;;3.30;1.93;;;;;;;18.37;65.39;100969.69;5059073;28;20203;-64
2023/05/18 04:46:25;;;;;;;5.10;2.13;;;;;;;18.36;65.76;100959.47;5060486;28;20184;-64
2023/05/18 04:48:51;;;;;;;3.33;1.70;;;;;;;18.36;65.51;100962.31;5055730;28;20471;-64
2023/05/18 04:51:20;;;;;;;3.70;2.10;;;;;;;18.35;65.41;100967.19;5059268;28;20425;-64
2023/05/18 04:53:48;;;;;;;4.20;1.67;;;;;;;18.35;65.84;100970.03;5059039;28;20421;-64
2023/05/18 04:56:15;;;;;;;4.07;1.80;;;;;;;18.36;65.61;100968.84;5040366;28;20557;-64
2023/05/18 04:58:40;;;;;;;4.03;1.60;;;;;;;18.37;65.35;100969.69;5058968;28;20426;-64
2023/05/18 05:01:06;;;;;;;3.13;1.63;;;;;;;18.37;65.07;100970.50;5037034;28;20496;-64
2023/05/18 05:03:32;;;;;;;4.00;2.07;;;;;;;18.36;65.48;100974.56;5059246;28;20294;-64
2023/05/18 05:05:57;;;;;;;3.13;2.00;;;;;;;18.35;65.50;100969.22;5025691;28;20426;-64
2023/05/18 05:08:22;;;;;;;2.60;1.60;;;;;;;18.34;65.65;100971.25;5059184;28;20245;-64
2023/05/18 05:10:48;;;;;;;4.00;1.87;;;;;;;18.34;65.45;100968.38;5058516;28;20192;-64
2023/05/18 05:13:13;;;;;;;3.70;2.30;;;;;;;18.36;65.64;100970.91;5057375;28;20224;-64
2023/05/18 05:15:39;;;;;;;2.53;1.57;;;;;;;18.35;65.34;100972.06;5039514;28;20208;-64
2023/05/18 05:18:04;;;;;;;3.67;1.70;;;;;;;18.33;65.68;100966.72;5039643;28;20180;-64
2023/05/18 05:20:30;;;;;;;3.87;1.83;;;;;;;18.33;65.64;100966.72;5024053;28;20200;-64
2023/05/18 05:22:55;;;;;;;2.40;1.53;;;;;;;18.33;65.35;100969.59;5047624;28;20183;-64
2023/05/18 05:25:21;;;;;;;2.23;1.40;;;;;;;18.34;65.26;100976.13;5059434;28;20175;-64
2023/05/18 05:27:46;;;;;;;3.03;1.70;;;;;;;18.33;65.88;100971.59;5059534;28;20172;-64
2023/05/18 05:30:12;;;;;;;2.97;1.80;;;;;;;18.32;65.71;100973.63;5039206;28;20186;-64
2023/05/18 05:32:37;;;;;;;2.80;1.60;;;;;;;18.31;65.66;100969.06;5052759;28;20530;-64
2023/05/18 05:35:03;;;;;;;3.23;1.80;;;;;;;18.32;65.69;100967.91;5053550;28;20214;-64
2023/05/18 05:37:28;;;;;;;3.03;1.90;;;;;;;18.33;65.76;100975.31;5051485;28;20183;-64
2023/05/18 05:39:55;;;;;;;2.53;1.60;;;;;;;18.35;65.76;100974.91;5029332;28;20195;-64
2023/05/18 05:42:20;;;;;;;2.57;1.70;;;;;;;18.33;65.64;100971.59;5058554;28;20172;-64
2023/05/18 05:44:46;;;;;;;2.37;1.40;;;;;;;18.33;65.28;100975.31;5058563;28;20431;-64
2023/05/18 05:47:11;;;;;;;3.50;1.53;;;;;;;18.33;65.64;100981.03;5058163;28;20188;-64
2023/05/18 05:49:37;;;;;;;3.50;1.90;;;;;;;18.33;65.41;100968.75;5058198;28;20183;-64
2023/05/18 05:52:02;;;;;;;2.53;1.67;;;;;;;18.32;65.58;100972.78;5059001;28;20210;-64
2023/05/18 05:54:27;;;;;;;3.40;2.17;;;;;;;18.30;65.81;100973.13;5059491;28;20219;-64
2023/05/18 05:56:53;;;;;;;3.77;1.77;;;;;;;18.33;65.77;100968.75;5062628;28;20658;-64
2023/05/18 05:59:19;;;;;;;3.47;1.70;;;;;;;18.33;65.11;100969.59;5043551;28;20192;-64
2023/05/18 06:01:44;;;;;;;2.30;1.43;;;;;;;18.33;65.67;100972.44;5045127;28;20176;-64
2023/05/18 06:04:11;;;;;;;3.23;1.80;;;;;;;18.32;65.36;100973.63;5063670;28;20647;-64
2023/05/18 06:06:37;;;;;;;3.23;1.73;;;;;;;18.28;65.88;100972.69;5062679;28;20204;-64
2023/05/18 06:09:03;;;;;;;2.47;1.40;;;;;;;18.29;65.82;100979.22;5062699;28;20424;-64
2023/05/18 06:11:29;;;;;;;2.80;1.90;;;;;;;18.27;65.76;100976.69;5062470;28;20460;-64
2023/05/18 06:13:54;;;;;;;2.60;1.47;;;;;;;18.31;65.44;100976.84;5043949;28;20195;-64
2023/05/18 06:16:20;;;;;;;3.20;2.00;;;;;;;18.30;65.71;100980.88;5048645;28;20192;-64
2023/05/18 06:18:45;;;;;;;2.90;1.73;;;;;;;18.29;65.59;100980.06;5053067;28;20191;-64
2023/05/18 06:21:11;;;;;;;2.53;1.40;;;;;;;18.30;65.72;100980.88;5054961;28;20167;-64
2023/05/18 06:23:36;;;;;;;2.13;1.30;;;;;;;18.31;65.38;100982.56;5051076;28;20516;-64
2023/05/18 06:26:01;;;;;;;3.97;1.90;;;;;;;18.30;65.55;100976.00;5040666;28;20572;-64
2023/05/18 06:28:27;;;;;;;3.93;1.50;;;;;;;18.29;65.47;100974.34;5018881;28;20539;-64
2023/05/18 06:30:52;;;;;;;3.10;1.73;;;;;;;18.28;65.53;100972.69;5055675;28;20198;-64
2023/05/18 06:33:20;;;;;;;2.37;1.53;;;;;;;18.29;65.61;100974.34;5055013;28;20172;-65
2023/05/18 06:35:45;;;;;;;3.90;1.70;;;;;;;18.30;65.82;100978.00;5056329;28;20244;-64
2023/05/18 06:38:11;;;;;;;2.57;1.60;;;;;;;18.26;65.55;100975.03;5049502;28;20438;-63
2023/05/18 06:40:36;;;;;;;4.57;1.50;;;;;;;18.28;65.76;100972.69;5054982;28;20191;-65
2023/05/18 06:43:01;;;;;;;3.73;2.13;;;;;;;18.28;65.83;100980.41;5051909;28;20184;-63
2023/05/18 06:45:27;;;;;;;2.50;1.70;;;;;;;18.29;65.33;100982.91;5055069;28;20183;-65
2023/05/18 06:47:52;;;;;;;2.47;1.40;;;;;;;18.28;65.56;100977.56;5048787;28;20168;-65
2023/05/18 06:50:18;;;;;;;3.03;1.70;;;;;;;18.27;65.88;100988.13;5042116;28;20194;-64
2023/05/18 06:52:43;;;;;;;3.10;1.57;;;;;;;18.28;65.84;100984.09;5056864;28;20176;-65
2023/05/18 06:55:09;;;;;;;3.03;1.67;;;;;;;18.28;65.33;100986.13;5059083;28;20298;-65
2023/05/18 06:57:34;;;;;;;3.23;1.60;;;;;;;18.28;65.43;100980.41;5057255;28;20241;-65
2023/05/18 07:00:00;;;;;;;3.13;1.73;;;;;;;18.26;65.76;100977.91;5058842;28;20183;-65
2023/05/18 07:02:25;;;;;;;2.87;1.87;;;;;;;18.24;65.99;100977.44;5055756;28;20184;-65
2023/05/18 07:04:53;;;;;;;3.33;1.90;;;;;;;18.26;65.43;100980.75;5049513;28;20220;-65
2023/05/18 07:07:20;;;;;;;3.83;1.63;;;;;;;18.25;65.91;100979.09;5052839;28;20196;-64
2023/05/18 07:09:48;;;;;;;2.40;1.40;;;;;;;18.25;65.86;100983.97;5049351;28;20438;-65
2023/05/18 07:12:13;;;;;;;2.60;1.60;;;;;;;18.24;65.77;100988.88;5048441;28;20477;-65
2023/05/18 07:14:39;;;;;;;3.70;1.70;;;;;;;18.24;65.81;100988.88;5036535;28;20455;-65
2023/05/18 07:17:05;;;;;;;2.97;1.63;;;;;;;18.24;65.61;100982.31;5053339;28;20190;-65
2023/05/18 07:19:31;;;;;;;3.17;1.63;;;;;;;18.24;65.95;100986.03;5021341;28;20287;-64
2023/05/18 07:21:58;;;;;;;3.03;1.70;;;;;;;18.24;65.76;100979.47;5052994;28;20434;-65
2023/05/18 07:24:24;;;;;;;2.47;1.67;;;;;;;18.24;65.60;100980.31;5029131;28;20418;-65
2023/05/18 07:26:49;;;;;;;3.20;1.80;;;;;;;18.24;65.64;100971.72;5054005;28;20434;-64
2023/05/18 07:29:15;;;;;;;3.30;1.50;;;;;;;18.24;65.55;100977.44;5051031;28;20422;-65
2023/05/18 07:31:40;;;;;;;3.10;1.70;;;;;;;18.24;65.63;100977.44;5046398;28;20196;-65
2023/05/18 07:34:06;;;;;;;2.23;1.50;;;;;;;18.24;65.56;100970.88;5050198;28;20217;-65
2023/05/18 07:36:32;;;;;;;4.37;1.77;;;;;;;18.24;65.48;100963.16;5030927;28;20215;-64
2023/05/18 07:38:58;;;;;;;3.10;1.60;;;;;;;18.24;65.69;100962.31;5020549;28;20832;-65
2023/05/18 07:41:24;;;;;;;3.60;1.43;;;;;;;18.23;65.73;100958.66;5054949;28;20643;-64
2023/05/18 07:43:50;;;;;;;2.80;1.57;;;;;;;18.25;65.32;100967.66;5052249;28;20465;-64
2023/05/18 07:46:16;;;;;;;4.90;2.50;;;;;;;18.08;65.35;100961.44;5055799;28;20438;-64
2023/05/18 07:48:42;;;;;;;8.27;2.67;;;;;;;17.87;57.51;100967.34;5061214;28;20201;-64
2023/05/18 07:51:07;;;;;;;9.40;2.60;;;;;;;17.71;55.67;100965.56;5023030;28;20182;-65
2023/05/18 07:53:33;;;;;;;8.47;2.80;;;;;;;17.77;57.38;100967.81;5041459;28;20930;-65
2023/05/18 07:55:59;;;;;;;9.97;3.13;;;;;;;17.96;56.27;100972.91;5059409;28;20199;-65
2023/05/18 07:58:24;;;;;;;8.23;3.60;;;;;;;18.29;59.11;100962.91;5058386;28;20430;-65
2023/05/18 08:00:50;;;;;;;14.27;4.23;;;;;;;18.72;62.19;100957.22;5057241;28;20611;-65
2023/05/18 08:03:16;;;;;;;12.27;5.20;;;;;;;18.96;61.79;100959.94;5057797;28;20168;-65
2023/05/18 08:05:42;;;;;;;13.90;5.50;;;;;;;18.93;61.08;100966.41;5054096;28;20280;-65
2023/05/18 08:08:10;;;;;;;11.57;5.73;;;;;;;19.18;61.31;100964.19;5057819;28;20429;-65
2023/05/18 08:10:36;;;;;;;8.77;6.47;;;;;;;19.15;62.41;100962.91;5034489;28;20187;-65
2023/05/18 08:13:02;;;;;;;15.17;7.33;;;;;;;19.24;62.62;100963.59;5061682;28;20473;-63
2023/05/18 08:15:27;;;;;;;14.93;7.50;;;;;;;19.16;62.33;100955.97;5061671;28;20215;-64
2023/05/18 08:17:53;;;;;;;15.53;7.30;;;;;;;19.20;62.20;100953.19;5039559;28;20526;-64
2023/05/18 08:20:19;;;;;;;12.77;7.30;;;;;;;19.02;63.30;100964.19;5060295;28;20184;-64
2023/05/18 08:22:44;;;;;;;21.30;6.90;;;;;;;19.02;61.92;100955.59;5041476;28;20842;-65
2023/05/18 08:25:10;;;;;;;13.10;5.50;;;;;;;19.01;61.48;100950.25;5045232;28;20183;-64
2023/05/18 08:27:35;;;;;;;14.50;6.20;;;;;;;19.04;62.35;100950.34;5062440;28;20199;-65
2023/05/18 08:30:01;;;;;;;15.33;5.67;;;;;;;19.10;62.43;100940.28;5062583;28;20267;-65
2023/05/18 08:32:26;;;;;;;18.50;6.03;;;;;;;19.12;62.48;100945.66;5063471;28;20191;-65
2023/05/18 08:34:53;;;;;;;12.47;5.30;;;;;;;19.06;63.63;100945.09;5042104;28;20207;-65
2023/05/18 08:37:18;;;;;;;11.23;4.90;;;;;;;19.01;63.57;100939.63;5061382;28;20187;-64
2023/05/18 08:39:44;;;;;;;9.37;4.50;;;;;;;19.01;63.33;100936.78;5042394;28;20434;-64
2023/05/18 08:42:27;;;;;;;12.00;4.77;;;;;;;19.03;62.94;100942.97;5055705;28;20199;-65
2023/05/18 08:45:51;;;;;;;9.77;4.13;;;;;;;19.09;62.02;100941.50;5059195;28;20400;-64
2023/05/18 08:48:16;;;;;;;8.80;3.53;;;;;;;19.10;63.07;100934.56;4954624;28;20427;-64
2023/05/18 08:50:41;;;;;;;10.00;4.33;;;;;;;19.06;63.44;100935.69;4947767;29;20427;-65
2023/05/18 08:53:08;;;;;;;11.17;3.50;;;;;;;19.02;63.03;100932.69;4988408;28;20252;-65
2023/05/18 08:55:35;;;;;;;7.33;3.63;;;;;;;19.02;63.36;100926.16;5032197;28;20213;-64
2023/05/18 08:58:01;;;;;;;6.40;3.07;;;;;;;19.05;62.74;100934.00;5043637;28;20900;-65
2023/05/18 09:00:26;;;;;;;11.37;2.90;;;;;;;18.95;62.15;100931.69;5061825;28;20425;-65
2023/05/18 09:02:52;;;;;;;8.97;3.77;;;;;;;18.92;61.12;100924.66;5055151;28;20179;-65
2023/05/18 09:05:17;;;;;;;7.83;3.07;;;;;;;18.96;61.08;100927.66;5041315;28;20227;-64
2023/05/18 09:07:43;;;;;;;10.10;3.20;;;;;;;18.94;61.07;100930.03;5055335;28;20618;-65
2023/05/18 09:10:14;;;;;;;12.10;3.80;;;;;;;18.92;61.50;100929.56;5051581;28;20171;-65
2023/05/18 09:12:41;;;;;;;10.30;3.83;;;;;;;18.95;61.39;100929.66;5054729;28;20220;-64
2023/05/18 09:15:09;;;;;;;8.20;2.53;;;;;;;18.93;60.89;100925.50;5048722;28;20451;-65
2023/05/18 09:17:34;;;;;;;6.93;2.43;;;;;;;18.80;60.12;100926.78;5029157;28;20814;-64
2023/05/18 09:20:00;;;;;;;9.63;3.23;;;;;;;18.70;58.97;100916.72;5044280;28;20452;-65
2023/05/18 09:22:25;;;;;;;8.53;2.80;;;;;;;18.64;58.83;100926.78;5042639;28;20192;-65
2023/05/18 09:24:50;;;;;;;8.27;2.80;;;;;;;18.62;56.74;100919.75;5031408;28;20180;-65
2023/05/18 09:27:16;;;;;;;15.13;3.70;;;;;;;18.64;57.29;100918.19;5047273;28;20237;-65
2023/05/18 09:29:51;;;;;;;9.50;2.70;;;;;;;18.66;56.23;100914.97;5062094;28;20191;-65
2023/05/18 09:32:16;;;;;;;6.63;2.90;;;;;;;18.65;55.63;100914.13;5062583;28;20211;-65
2023/05/18 09:34:42;;;;;;;10.97;3.30;;;;;;;18.57;54.84;100912.28;5040171;28;20465;-65
2023/05/18 09:37:08;;;;;;;9.93;3.50;;;;;;;18.55;53.42;100913.84;5064301;28;20164;-65
2023/05/18 09:39:33;;;;;;;10.20;3.47;;;;;;;18.54;53.63;100907.31;5043385;28;20203;-65
2023/05/18 09:41:59;;;;;;;10.57;3.00;;;;;;;18.57;52.50;100906.53;5026961;28;20436;-65
2023/05/18 09:44:32;;;;;;;10.10;3.03;;;;;;;18.56;53.22;100909.81;5027727;28;20167;-65
2023/05/18 09:46:57;;;;;;;9.10;3.47;;;;;;;18.59;53.45;100903.31;5057750;28;20248;-66
2023/05/18 09:49:23;;;;;;;10.63;3.83;;;;;;;18.62;54.14;100914.84;5063226;28;20410;-65
2023/05/18 09:51:48;;;;;;;9.67;3.00;;;;;;;18.65;54.33;100902.69;5044248;28;20187;-65
2023/05/18 09:54:14;;;;;;;6.97;2.93;;;;;;;18.61;54.16;100907.47;5067743;28;20179;-64
2023/05/18 09:56:40;;;;;;;8.67;4.37;;;;;;;18.62;53.40;100903.41;5048808;28;20237;-64
2023/05/18 09:59:13;;;;;;;6.80;3.30;;;;;;;18.61;53.35;100904.63;5047242;28;20192;-65
2023/05/18 10:02:16;;;;;;;12.90;4.20;;;;;;;18.62;53.24;100903.41;5052756;28;20187;-65
2023/05/18 10:04:42;;;;;;;10.87;3.87;;;;;;;18.61;53.33;100903.81;5008875;28;20520;-65
2023/05/18 10:07:11;;;;;;;10.40;4.07;;;;;;;18.60;52.23;100897.25;5050096;28;20584;-65
2023/05/18 10:09:38;;;;;;;14.97;3.73;;;;;;;18.59;52.61;100898.44;5034563;28;20180;-65
2023/05/18 10:12:09;;;;;;;8.07;3.50;;;;;;;18.61;52.31;100895.22;5042892;28;20461;-65
2023/05/18 10:14:35;;;;;;;9.73;3.30;;;;;;;18.61;52.16;100900.94;5061700;28;21011;-65
2023/05/18 10:17:03;;;;;;;15.97;4.50;;;;;;;18.64;52.51;100888.75;5040940;28;20421;-65
2023/05/18 10:19:30;;;;;;;9.60;3.63;;;;;;;18.61;52.82;100887.47;5053212;28;20481;-64
2023/05/18 10:21:56;;;;;;;8.43;2.90;;;;;;;18.61;52.16;100896.03;5033944;28;20427;-64
2023/05/18 10:24:21;;;;;;;9.90;3.03;;;;;;;18.64;52.51;100888.75;5035051;28;20852;-64
2023/05/18 10:26:47;;;;;;;8.93;3.33;;;;;;;18.64;52.54;100877.31;5045912;28;20660;-64
2023/05/18 10:29:12;;;;;;;15.00;4.07;;;;;;;18.64;52.62;100889.59;5064908;28;20164;-65
2023/05/18 10:31:38;;;;;;;8.47;3.17;;;;;;;18.67;52.96;100890.91;5064900;28;20175;-65
2023/05/18 10:34:04;;;;;;;9.93;3.77;;;;;;;18.67;52.99;100888.84;5062095;28;20243;-64
2023/05/18 10:36:30;;;;;;;7.83;3.03;;;;;;;18.66;53.04;100892.09;5051737;28;20231;-64
2023/05/18 10:38:56;;;;;;;9.23;3.97;;;;;;;18.66;52.93;100887.19;5023543;28;20202;-64
2023/05/18 10:41:21;;;;;;;9.80;3.20;;;;;;;18.66;52.94;100874.94;5037696;28;20524;-64
2023/05/18 10:43:47;;;;;;;12.70;3.50;;;;;;;18.68;52.58;100883.97;5058791;28;20691;-64
2023/05/18 10:46:14;;;;;;;18.40;4.70;;;;;;;18.65;52.50;100878.97;5055429;28;20177;-64
2023/05/18 10:48:40;;;;;;;9.90;3.70;;;;;;;18.60;52.30;100874.38;5049619;28;20818;-64
2023/05/18 10:51:06;;;;;;;9.80;3.83;;;;;;;18.65;52.85;100874.09;5058764;28;20434;-64
2023/05/18 10:53:31;;;;;;;11.40;3.20;;;;;;;18.69;53.30;100874.19;5045289;28;20191;-65
2023/05/18 10:55:56;;;;;;;8.70;3.53;;;;;;;18.72;53.09;100864.88;5040588;28;20200;-64
2023/05/18 10:58:26;;;;;;;12.40;3.80;;;;;;;18.75;53.17;100866.97;5044470;28;20588;-65
2023/05/18 11:00:56;;;;;;;10.50;3.67;;;;;;;18.76;53.57;100860.91;5046068;28;20561;-65
2023/05/18 11:03:21;;;;;;;10.80;3.07;;;;;;;18.78;53.51;100867.09;5043480;28;20433;-65
2023/05/18 11:06:02;;;;;;;9.70;3.23;;;;;;;18.81;53.77;100863.50;5056731;28;20442;-65
2023/05/18 11:08:27;;;;;;;9.50;2.70;;;;;;;18.84;53.66;100865.63;5057476;28;20231;-65
2023/05/18 11:11:01;;;;;;;7.27;3.17;;;;;;;18.85;54.04;100855.00;5043826;28;20423;-64
2023/05/18 11:13:28;;;;;;;6.87;3.40;;;;;;;18.82;54.38;100865.13;5049060;28;20172;-65
2023/05/18 11:15:54;;;;;;;8.53;3.33;;;;;;;18.86;54.74;100851.75;5059989;28;20461;-64
2023/05/18 11:18:38;;;;;;;10.17;4.10;;;;;;;18.81;53.92;100856.94;5057399;28;20551;-64
2023/05/18 11:21:22;;;;;;;9.30;4.07;;;;;;;18.78;53.25;100854.81;5038529;28;20477;-65